createdAt,value
2023-04-13T00:00:41.667Z,8.60
2023-04-13T00:05:50.848Z,8.50
2023-04-13T00:10:58.234Z,8.70
2023-04-13T00:16:06.440Z,8.70
2023-04-13T00:21:14.936Z,8.70
2023-04-13T00:26:23.069Z,8.70
2023-04-13T00:31:29.971Z,8.80
2023-04-13T00:36:37.424Z,8.90
2023-04-13T00:41:44.369Z,8.80
2023-04-13T00:46:54.377Z,8.70
2023-04-13T00:52:03.678Z,8.70
2023-04-13T00:57:10.954Z,8.60
2023-04-13T01:02:20.392Z,8.60
2023-04-13T01:07:49.358Z,8.60
2023-04-13T01:13:03.578Z,8.50
2023-04-13T01:18:12.516Z,8.50
2023-04-13T01:23:46.591Z,8.50
2023-04-13T01:28:54.862Z,8.50
2023-04-13T01:34:01.905Z,8.50
2023-04-13T01:39:09.428Z,8.60
2023-04-13T01:44:17.535Z,8.60
2023-04-13T01:49:25.204Z,8.60
2023-04-13T01:54:34.033Z,8.50
2023-04-13T01:59:40.711Z,8.50
2023-04-13T02:04:47.399Z,8.50
2023-04-13T02:09:55.282Z,8.60
2023-04-13T02:15:02.358Z,8.50
2023-04-13T02:20:12.132Z,8.50
2023-04-13T02:25:19.192Z,8.60
2023-04-13T02:30:26.194Z,8.70
2023-04-13T02:35:35.091Z,8.60
2023-04-13T02:40:41.515Z,8.60
2023-04-13T02:45:48.492Z,8.70
2023-04-13T02:50:56.519Z,8.60
2023-04-13T02:56:03.295Z,8.50
2023-04-13T03:01:10.438Z,8.50
2023-04-13T03:06:17.952Z,8.50
2023-04-13T03:11:26.491Z,8.50
2023-04-13T03:16:33.219Z,8.50
2023-04-13T03:21:41.631Z,8.50
2023-04-13T03:26:48.862Z,8.40
2023-04-13T03:31:56.213Z,8.30
2023-04-13T03:37:03.003Z,8.10
2023-04-13T03:42:09.890Z,7.90
2023-04-13T03:47:16.907Z,7.70
2023-04-13T03:52:23.632Z,7.60
2023-04-13T03:57:31.068Z,7.70
2023-04-13T04:02:38.331Z,7.60
2023-04-13T04:07:45.078Z,7.60
2023-04-13T04:12:52.082Z,7.50
2023-04-13T04:17:59.620Z,7.40
2023-04-13T04:23:06.379Z,7.20
2023-04-13T04:28:14.672Z,7.20
2023-04-13T04:33:24.216Z,7.20
2023-04-13T04:38:32.563Z,7.10
2023-04-13T04:43:39.349Z,7.10
2023-04-13T04:48:48.446Z,7.20
2023-04-13T04:53:58.003Z,7.20
2023-04-13T04:59:05.195Z,7.20
2023-04-13T05:04:12.544Z,7.30
2023-04-13T05:09:20.983Z,7.20
2023-04-13T05:14:27.762Z,6.90
2023-04-13T05:19:35.788Z,6.90
2023-04-13T05:24:43.350Z,6.80
2023-04-13T05:29:50.979Z,6.80
2023-04-13T05:34:58.658Z,6.90
2023-04-13T05:40:07.366Z,6.90
2023-04-13T05:45:15.718Z,6.90
2023-04-13T05:50:22.852Z,6.90
2023-04-13T05:55:30.117Z,6.80
2023-04-13T06:00:38.226Z,6.90
2023-04-13T06:05:45.094Z,7.00
2023-04-13T06:10:52.074Z,7.20
2023-04-13T06:16:00.376Z,7.10
2023-04-13T06:21:08.187Z,7.20
2023-04-13T06:26:14.995Z,7.30
2023-04-13T06:31:23.670Z,7.50
2023-04-13T06:36:30.773Z,7.50
2023-04-13T06:41:38.375Z,7.40
2023-04-13T06:46:45.270Z,7.30
2023-04-13T06:51:52.577Z,7.40
2023-04-13T06:57:01.119Z,7.50
2023-04-13T07:02:09.903Z,7.50
2023-04-13T07:07:16.928Z,7.50
2023-04-13T07:12:23.676Z,7.50
2023-04-13T07:17:31.058Z,7.30
2023-04-13T07:22:37.964Z,7.40
2023-04-13T07:27:44.694Z,7.50
2023-04-13T07:32:51.422Z,7.40
2023-04-13T07:37:58.679Z,7.30
2023-04-13T07:43:06.234Z,7.40
2023-04-13T07:48:13.158Z,7.40
2023-04-13T07:53:19.888Z,7.50
2023-04-13T07:58:26.707Z,7.30
2023-04-13T08:03:37.188Z,7.20
2023-04-13T08:08:44.269Z,7.20
2023-04-13T08:13:51.311Z,7.10
2023-04-13T08:18:58.680Z,7.00
2023-04-13T08:24:06.711Z,7.10
2023-04-13T08:29:14.648Z,7.20
2023-04-13T08:34:21.854Z,7.20
2023-04-13T08:39:28.622Z,7.30
2023-04-13T08:44:35.817Z,7.30
2023-04-13T08:49:45.017Z,7.20
2023-04-13T08:54:52.670Z,7.10
2023-04-13T09:00:01.409Z,7.10
2023-04-13T09:05:12.984Z,7.00
2023-04-13T09:10:20.904Z,7.30
2023-04-13T09:15:27.643Z,7.30
2023-04-13T09:20:34.380Z,7.30
2023-04-13T09:25:41.074Z,7.30
2023-04-13T09:30:48.167Z,7.40
2023-04-13T09:35:55.322Z,7.40
2023-04-13T09:41:02.188Z,7.60
2023-04-13T09:46:17.085Z,7.40
2023-04-13T09:51:24.478Z,7.40
2023-04-13T09:56:32.917Z,7.40
2023-04-13T10:01:41.713Z,7.50
2023-04-13T10:06:50.867Z,7.50
2023-04-13T10:12:00.432Z,7.60
2023-04-13T10:17:14.579Z,7.50
2023-04-13T10:22:24.181Z,7.60
2023-04-13T10:27:31.976Z,7.40
2023-04-13T10:32:43.075Z,7.40
2023-04-13T10:37:55.141Z,7.20
2023-04-13T10:43:02.349Z,7.20
2023-04-13T10:48:09.282Z,7.10
2023-04-13T10:53:19.839Z,7.20
2023-04-13T10:58:30.013Z,7.20
2023-04-13T11:03:37.958Z,7.10
2023-04-13T11:09:02.228Z,7.20
2023-04-13T11:13:55.878Z,7.20
2023-04-13T11:19:07.025Z,7.30
2023-04-13T11:24:14.686Z,7.30
2023-04-13T11:29:22.906Z,7.40
2023-04-13T11:34:30.116Z,7.30
2023-04-13T11:39:40.662Z,7.50
2023-04-13T11:44:47.616Z,7.40
2023-04-13T11:49:54.886Z,7.60
2023-04-13T11:55:15.409Z,7.50
2023-04-13T12:00:26.879Z,7.40
2023-04-13T12:05:35.203Z,7.60
2023-04-13T12:10:55.201Z,7.50
2023-04-13T12:16:06.548Z,7.30
2023-04-13T12:21:05.708Z,7.40
2023-04-13T12:26:49.924Z,7.50
2023-04-13T12:31:21.988Z,7.40
2023-04-13T12:36:30.799Z,7.00
2023-04-13T12:41:37.594Z,7.10
2023-04-13T12:46:45.144Z,6.90
2023-04-13T12:51:52.365Z,7.00
2023-04-13T12:57:00.097Z,7.20
2023-04-13T13:02:07.077Z,7.20
2023-04-13T13:07:14.010Z,7.30
2023-04-13T13:12:22.319Z,7.40
2023-04-13T13:17:31.234Z,7.20
2023-04-13T13:22:38.764Z,7.10
2023-04-13T13:32:54.803Z,7.10
2023-04-13T13:38:03.879Z,7.00
2023-04-13T13:43:11.442Z,7.10
2023-04-13T13:48:18.491Z,7.10
2023-04-13T13:53:25.365Z,7.10
2023-04-13T13:58:32.364Z,7.00
2023-04-13T14:03:39.515Z,6.90
2023-04-13T14:08:46.691Z,6.90
2023-04-13T14:13:55.144Z,6.90
2023-04-13T14:19:02.344Z,6.80
2023-04-13T14:24:11.434Z,6.70
2023-04-13T14:29:18.734Z,6.90
2023-04-13T14:34:25.939Z,6.90
2023-04-13T14:39:32.749Z,6.80
2023-04-13T14:44:39.703Z,6.80
2023-04-13T14:49:46.736Z,6.90
2023-04-13T14:54:57.997Z,7.00
2023-04-13T15:00:06.715Z,6.80
2023-04-13T15:05:13.625Z,6.70
2023-04-13T15:10:22.174Z,6.70
2023-04-13T15:15:31.072Z,6.80
2023-04-13T15:20:39.195Z,6.60
2023-04-13T15:25:46.888Z,6.60
2023-04-13T15:30:54.344Z,6.70
2023-04-13T15:36:01.331Z,6.60
2023-04-13T15:41:12.821Z,6.60
2023-04-13T15:46:19.649Z,6.70
2023-04-13T15:51:28.029Z,6.70
2023-04-13T15:56:37.408Z,6.60
2023-04-13T16:01:51.883Z,6.50
2023-04-13T16:07:12.047Z,6.40
2023-04-13T16:12:11.504Z,6.50
2023-04-13T16:17:19.057Z,6.40
2023-04-13T16:22:26.277Z,6.50
2023-04-13T16:27:33.375Z,6.40
2023-04-13T16:32:43.637Z,6.30
2023-04-13T16:37:50.418Z,6.50
2023-04-13T16:42:57.656Z,6.50
2023-04-13T16:48:05.502Z,6.50
2023-04-13T16:53:12.578Z,6.50
2023-04-13T16:58:19.875Z,6.40
2023-04-13T17:03:28.328Z,6.40
2023-04-13T17:08:35.300Z,6.20
2023-04-13T17:13:43.763Z,6.30
2023-04-13T17:18:50.721Z,6.10
2023-04-13T17:23:58.097Z,6.20
2023-04-13T17:29:05.263Z,6.30
2023-04-13T17:34:12.139Z,6.40
2023-04-13T17:39:18.865Z,6.30
2023-04-13T17:44:26.011Z,6.30
2023-04-13T17:49:33.067Z,6.30
2023-04-13T17:54:42.427Z,6.20
2023-04-13T17:59:49.798Z,6.00
2023-04-13T18:04:57.252Z,5.80
2023-04-13T18:10:05.781Z,5.90
2023-04-13T18:15:12.965Z,5.70
2023-04-13T18:20:20.184Z,5.60
2023-04-13T18:25:27.044Z,5.50
2023-04-13T18:30:34.178Z,5.60
2023-04-13T18:35:47.403Z,5.70
2023-04-13T18:40:54.579Z,5.70
2023-04-13T18:46:02.259Z,5.70
2023-04-13T18:51:10.840Z,5.70
2023-04-13T18:56:17.944Z,5.70
2023-04-13T19:01:25.127Z,5.60
2023-04-13T19:06:32.298Z,5.40
2023-04-13T19:11:51.943Z,5.40
2023-04-13T19:17:00.040Z,5.40
2023-04-13T19:22:07.014Z,5.20
2023-04-13T19:27:14.794Z,5.20
2023-04-13T19:32:22.071Z,5.20
2023-04-13T19:37:28.925Z,5.30
2023-04-13T19:42:35.977Z,5.10
2023-04-13T19:47:44.752Z,5.20
2023-04-13T19:52:53.286Z,5.30
2023-04-13T19:58:00.465Z,5.30
2023-04-13T20:03:09.004Z,5.30
2023-04-13T20:08:16.967Z,4.90
2023-04-13T20:13:24.315Z,5.00
2023-04-13T20:18:32.324Z,5.20
2023-04-13T20:23:40.119Z,5.00
2023-04-13T20:28:47.005Z,5.10
2023-04-13T20:33:54.538Z,5.20
2023-04-13T20:39:01.458Z,5.20
2023-04-13T20:44:10.281Z,5.20
2023-04-13T20:49:17.991Z,5.20
2023-04-13T20:54:25.072Z,5.20
2023-04-13T20:59:31.901Z,5.00
2023-04-13T21:04:39.337Z,4.90
2023-04-13T21:09:46.534Z,4.90
2023-04-13T21:14:53.521Z,4.90
2023-04-13T21:20:00.314Z,4.60
2023-04-13T21:25:08.245Z,4.50
2023-04-13T21:30:15.261Z,4.50
2023-04-13T21:35:24.050Z,4.20
2023-04-13T21:40:31.517Z,4.20
2023-04-13T21:45:38.820Z,4.20
2023-04-13T21:50:48.696Z,4.20
2023-04-13T21:55:55.855Z,4.40
2023-04-13T22:01:02.855Z,4.30
2023-04-13T22:06:32.132Z,4.30
2023-04-13T22:11:40.321Z,4.30
2023-04-13T22:16:48.818Z,4.30
2023-04-13T22:21:55.931Z,4.30
2023-04-13T22:27:04.731Z,4.20
2023-04-13T22:32:11.643Z,4.20
2023-04-13T22:37:18.383Z,4.10
2023-04-13T22:42:25.246Z,4.20
2023-04-13T22:47:32.479Z,4.30
2023-04-13T22:52:39.523Z,4.30
2023-04-13T22:57:47.943Z,4.30
2023-04-13T23:02:56.411Z,4.00
2023-04-13T23:08:03.875Z,3.90
2023-04-13T23:13:11.844Z,4.20
2023-04-13T23:18:18.598Z,3.90
2023-04-13T23:23:25.855Z,4.10
2023-04-13T23:28:32.783Z,4.00
2023-04-13T23:33:39.975Z,3.90
2023-04-13T23:38:54.673Z,3.90
2023-04-13T23:44:02.200Z,4.00
2023-04-13T23:49:09.713Z,3.80
2023-04-13T23:54:16.472Z,3.80
2023-04-13T23:59:23.709Z,3.90
